Time;durP1;ratioP1;P1;durP2;ratioP2;P2;SDS_P1;SDS_P2;PMS_P1;PMS_P2;Temp;Humidity;BMP_temperature;BMP_pressure;BME280_temperature;BME280_humidity;BME280_pressure;Samples;Min_cycle;Max_cycle;Signal;HPM_P1;HPM_P2
2021/04/10 00:00:59;;;;;;;5.70;2.30;;;10.90;73.10;;;;;;5094385;28;20831;-50
2021/04/10 00:03:26;;;;;;;2.57;2.20;;;11.00;72.80;;;;;;5094530;28;20454;-50
2021/04/10 00:05:52;;;;;;;7.40;2.50;;;11.10;73.10;;;;;;5092097;28;20453;-50
2021/04/10 00:08:19;;;;;;;4.23;2.57;;;11.00;72.30;;;;;;5092655;28;20986;-51
2021/04/10 00:10:45;;;;;;;3.03;2.50;;;11.00;72.30;;;;;;5091711;28;20454;-50
2021/04/10 00:13:12;;;;;;;2.43;2.23;;;11.10;72.00;;;;;;5094404;28;20981;-50
2021/04/10 00:15:39;;;;;;;6.03;2.43;;;11.10;72.30;;;;;;5094348;28;20938;-51
2021/04/10 00:18:06;;;;;;;3.80;2.63;;;11.10;72.80;;;;;;5094651;28;20465;-50
2021/04/10 00:20:32;;;;;;;3.00;2.20;;;11.10;72.90;;;;;;5084877;28;21013;-50
2021/04/10 00:22:59;;;;;;;3.53;2.60;;;11.00;72.70;;;;;;5073638;28;20825;-50
2021/04/10 00:25:25;;;;;;;2.40;2.20;;;11.00;72.70;;;;;;5075082;28;20447;-51
2021/04/10 00:27:51;;;;;;;5.57;2.87;;;11.10;72.40;;;;;;5092566;28;20473;-51
2021/04/10 00:30:19;;;;;;;4.20;2.67;;;11.10;72.90;;;;;;5093247;28;20471;-50
2021/04/10 00:32:46;;;;;;;3.93;2.53;;;11.00;73.30;;;;;;5093563;28;20452;-50
2021/04/10 00:35:13;;;;;;;5.20;2.37;;;11.00;73.20;;;;;;5083377;28;20458;-50
2021/04/10 00:37:40;;;;;;;4.00;2.77;;;11.00;73.30;;;;;;5082556;28;20828;-51
2021/04/10 00:40:08;;;;;;;4.40;2.57;;;11.10;72.70;;;;;;5093634;28;20453;-50
2021/04/10 00:42:39;;;;;;;3.23;2.40;;;11.00;72.40;;;;;;5092429;28;20450;-50
2021/04/10 00:45:07;;;;;;;5.90;2.50;;;10.90;73.30;;;;;;5093483;28;20450;-50
2021/04/10 00:47:34;;;;;;;4.47;3.03;;;10.90;72.40;;;;;;5092937;28;20480;-51
2021/04/10 00:50:01;;;;;;;6.33;2.57;;;11.00;73.90;;;;;;5081679;28;21260;-49
2021/04/10 00:52:30;;;;;;;4.97;2.67;;;10.80;73.90;;;;;;5089021;28;20446;-50
2021/04/10 00:54:57;;;;;;;8.27;3.00;;;10.70;74.50;;;;;;5092947;28;20851;-50
2021/04/10 00:57:24;;;;;;;5.30;2.70;;;10.80;74.80;;;;;;5093070;28;20483;-50
2021/04/10 00:59:51;;;;;;;4.10;2.50;;;10.80;74.50;;;;;;5084452;28;20450;-50
2021/04/10 01:02:17;;;;;;;5.30;2.70;;;11.00;73.00;;;;;;5072557;28;20457;-50
2021/04/10 01:04:44;;;;;;;3.80;2.30;;;10.90;72.80;;;;;;5083649;28;20453;-50
2021/04/10 01:07:11;;;;;;;2.57;2.10;;;11.10;72.00;;;;;;5092182;28;20469;-50
2021/04/10 01:09:38;;;;;;;8.77;2.87;;;11.20;72.60;;;;;;5092301;28;20481;-50
2021/04/10 01:12:20;;;;;;;4.80;2.90;;;11.20;72.60;;;;;;5092921;28;20449;-50
2021/04/10 01:14:59;;;;;;;3.70;2.40;;;11.20;72.90;;;;;;5091861;28;20577;-50
2021/04/10 01:17:32;;;;;;;4.27;2.60;;;11.20;72.60;;;;;;5076568;28;20473;-51
2021/04/10 01:20:24;;;;;;;3.00;2.70;;;11.30;73.10;;;;;;5091877;28;20935;-51
2021/04/10 01:23:13;;;;;;;5.03;2.60;;;11.30;72.70;;;;;;5072323;28;20549;-51
2021/04/10 01:25:47;;;;;;;5.60;2.70;;;11.20;73.00;;;;;;5072636;28;20537;-50
2021/04/10 01:28:42;;;;;;;2.80;2.60;;;11.10;73.20;;;;;;5106711;22;20550;-48
2021/04/10 01:31:09;;;;;;;3.13;2.70;;;11.00;74.10;;;;;;5091948;28;20449;-48
2021/04/10 01:33:40;;;;;;;2.30;2.10;;;10.90;74.60;;;;;;5092021;28;20453;-48
2021/04/10 01:36:10;;;;;;;2.47;2.20;;;10.70;75.20;;;;;;5092253;28;21007;-48
2021/04/10 01:38:38;;;;;;;2.53;2.33;;;10.70;74.20;;;;;;5091962;28;20461;-48
2021/04/10 01:41:06;;;;;;;4.93;2.77;;;10.90;74.10;;;;;;5091366;28;20454;-49
2021/04/10 01:43:35;;;;;;;3.50;2.30;;;10.80;73.80;;;;;;5091231;28;20452;-48
2021/04/10 01:46:03;;;;;;;2.53;2.33;;;10.80;73.90;;;;;;5073543;28;20511;-49
2021/04/10 01:48:32;;;;;;;2.47;2.00;;;10.80;74.20;;;;;;5082324;28;20505;-48
2021/04/10 01:51:00;;;;;;;3.50;2.43;;;10.80;75.10;;;;;;5092075;28;20445;-48
2021/04/10 01:53:27;;;;;;;2.33;2.10;;;10.60;75.10;;;;;;5091968;28;21004;-49
2021/04/10 01:55:55;;;;;;;2.27;2.00;;;10.50;74.90;;;;;;5084291;28;20796;-49
2021/04/10 01:58:21;;;;;;;3.47;2.33;;;10.40;75.20;;;;;;5071866;28;20469;-49
2021/04/10 02:00:50;;;;;;;6.30;2.80;;;10.30;75.80;;;;;;5071600;28;20826;-49
2021/04/10 02:03:19;;;;;;;9.23;2.77;;;10.30;75.50;;;;;;5082727;28;20446;-48
2021/04/10 02:05:46;;;;;;;6.40;2.70;;;10.10;75.20;;;;;;5087566;28;20454;-49
2021/04/10 02:08:15;;;;;;;3.07;2.50;;;10.20;76.20;;;;;;5074263;28;20506;-49
2021/04/10 02:10:42;;;;;;;3.53;2.20;;;10.20;75.30;;;;;;5080185;28;20458;-49
2021/04/10 02:13:09;;;;;;;4.77;2.37;;;10.10;75.10;;;;;;5078618;28;20446;-48
2021/04/10 02:15:36;;;;;;;4.20;2.50;;;10.20;75.60;;;;;;5071494;28;20533;-49
2021/04/10 02:18:04;;;;;;;4.37;2.50;;;10.30;75.30;;;;;;5079222;28;20986;-49
2021/04/10 02:20:31;;;;;;;3.13;2.23;;;10.30;75.50;;;;;;5079379;28;20465;-49
2021/04/10 02:22:58;;;;;;;4.30;2.63;;;10.40;75.60;;;;;;5072472;28;20883;-49
2021/04/10 02:25:26;;;;;;;2.60;2.37;;;10.50;76.20;;;;;;5071369;28;20475;-49
2021/04/10 02:27:54;;;;;;;2.40;2.03;;;10.50;76.10;;;;;;5070976;28;20481;-48
2021/04/10 02:30:21;;;;;;;2.37;2.17;;;10.40;76.50;;;;;;5077444;28;20518;-48
2021/04/10 02:32:54;;;;;;;2.67;2.47;;;10.30;76.80;;;;;;5081084;28;20454;-49
2021/04/10 02:35:26;;;;;;;3.80;2.60;;;10.10;76.70;;;;;;5076224;28;20808;-48
2021/04/10 02:37:54;;;;;;;3.93;2.20;;;10.30;77.40;;;;;;5085021;28;21116;-49
2021/04/10 02:40:27;;;;;;;2.97;2.37;;;10.20;76.70;;;;;;5075065;28;20457;-49
2021/04/10 02:42:54;;;;;;;5.00;2.80;;;10.20;78.00;;;;;;5080438;28;20559;-49
2021/04/10 02:45:24;;;;;;;3.20;2.70;;;10.00;77.30;;;;;;5072377;28;20448;-48
2021/04/10 02:47:54;;;;;;;4.97;2.93;;;10.00;77.60;;;;;;5084577;28;20477;-49
2021/04/10 02:50:22;;;;;;;3.13;2.50;;;10.00;77.60;;;;;;5090025;28;20442;-49
2021/04/10 02:52:52;;;;;;;4.93;2.70;;;9.90;79.00;;;;;;5090410;28;20438;-49
2021/04/10 02:55:25;;;;;;;4.93;2.40;;;10.00;78.10;;;;;;5092067;28;20502;-49
2021/04/10 02:57:53;;;;;;;2.90;2.23;;;9.90;79.00;;;;;;5081912;28;21116;-49
2021/04/10 03:00:21;;;;;;;2.90;2.60;;;9.90;79.50;;;;;;5075221;28;20449;-49
2021/04/10 03:02:48;;;;;;;2.40;2.20;;;9.70;80.50;;;;;;5074900;28;20470;-49
2021/04/10 03:05:15;;;;;;;2.80;2.57;;;9.90;79.80;;;;;;5075005;28;20455;-49
2021/04/10 03:07:47;;;;;;;3.73;2.20;;;9.80;79.90;;;;;;5077989;28;20462;-48
2021/04/10 03:10:15;;;;;;;3.47;2.70;;;9.70;79.80;;;;;;5090432;28;20475;-49
2021/04/10 03:12:42;;;;;;;4.17;2.50;;;9.70;80.00;;;;;;5089699;28;20548;-49
2021/04/10 03:15:13;;;;;;;3.40;2.40;;;9.90;80.60;;;;;;5075011;28;20882;-49
2021/04/10 03:17:42;;;;;;;3.80;2.80;;;9.90;80.10;;;;;;5082852;28;20884;-49
2021/04/10 03:20:12;;;;;;;3.57;3.00;;;9.90;80.80;;;;;;5080650;28;20953;-48
2021/04/10 03:22:41;;;;;;;3.93;2.70;;;9.90;80.70;;;;;;5085988;28;20532;-49
2021/04/10 03:25:11;;;;;;;3.27;2.50;;;9.90;81.10;;;;;;5078018;28;20441;-49
2021/04/10 03:27:38;;;;;;;4.73;2.30;;;9.90;81.40;;;;;;5074154;28;20570;-49
2021/04/10 03:30:07;;;;;;;4.23;2.87;;;10.00;80.80;;;;;;5075134;28;20530;-48
2021/04/10 03:32:37;;;;;;;3.13;2.77;;;9.90;81.70;;;;;;5074817;28;20450;-49
2021/04/10 03:35:04;;;;;;;4.10;2.73;;;9.80;81.30;;;;;;5074275;28;20442;-49
2021/04/10 03:37:36;;;;;;;4.27;2.83;;;9.70;82.10;;;;;;5074656;28;20469;-49
2021/04/10 03:40:04;;;;;;;8.80;3.70;;;9.70;81.40;;;;;;5078716;28;20441;-48
2021/04/10 03:42:37;;;;;;;3.43;3.00;;;9.70;81.70;;;;;;5093329;28;20453;-48
2021/04/10 03:45:05;;;;;;;4.83;3.13;;;9.70;81.70;;;;;;5080221;28;20440;-48
2021/04/10 03:47:31;;;;;;;3.80;2.70;;;9.70;82.90;;;;;;5074144;28;20468;-48
2021/04/10 03:49:58;;;;;;;7.93;3.30;;;9.60;82.70;;;;;;5074112;28;20480;-48
2021/04/10 03:52:24;;;;;;;3.07;2.60;;;9.70;82.70;;;;;;5074094;28;20884;-48
2021/04/10 03:54:51;;;;;;;3.40;2.87;;;10.00;80.30;;;;;;5074020;28;20447;-48
2021/04/10 03:57:17;;;;;;;4.70;2.70;;;9.90;81.90;;;;;;5074098;28;20465;-48
2021/04/10 03:59:45;;;;;;;3.00;2.70;;;9.80;81.90;;;;;;5074032;28;20435;-48
2021/04/10 04:02:11;;;;;;;11.07;3.77;;;10.00;80.10;;;;;;5076973;28;20453;-48
2021/04/10 04:04:38;;;;;;;5.17;2.73;;;10.10;79.60;;;;;;5077648;28;20451;-47
2021/04/10 04:07:08;;;;;;;5.90;2.97;;;10.30;79.00;;;;;;5076939;28;20453;-48
2021/04/10 04:09:36;;;;;;;3.90;2.53;;;10.20;79.60;;;;;;5075799;28;20476;-48
2021/04/10 04:12:03;;;;;;;4.00;3.00;;;10.10;79.40;;;;;;5079463;28;20456;-48
2021/04/10 04:14:30;;;;;;;3.70;2.80;;;10.10;79.90;;;;;;5093051;28;20445;-47
2021/04/10 04:16:57;;;;;;;3.80;3.00;;;10.10;80.00;;;;;;5093003;28;20448;-49
2021/04/10 04:19:24;;;;;;;4.30;2.90;;;10.30;79.30;;;;;;5092655;28;20447;-49
2021/04/10 04:21:50;;;;;;;4.70;2.50;;;10.20;79.20;;;;;;5084842;28;20442;-47
2021/04/10 04:24:17;;;;;;;6.73;2.70;;;10.30;79.50;;;;;;5073898;28;20500;-48
2021/04/10 04:26:43;;;;;;;4.90;2.80;;;10.20;79.40;;;;;;5083006;28;20451;-48
2021/04/10 04:29:10;;;;;;;6.80;2.80;;;10.30;79.10;;;;;;5082801;28;20484;-48
2021/04/10 04:31:36;;;;;;;2.97;2.67;;;10.50;80.00;;;;;;5075840;28;20833;-48
2021/04/10 04:34:04;;;;;;;3.23;2.70;;;10.60;78.40;;;;;;5073155;28;20517;-49
2021/04/10 04:36:30;;;;;;;4.07;2.60;;;10.60;78.70;;;;;;5091195;28;20532;-48
2021/04/10 04:38:57;;;;;;;6.33;3.90;;;10.60;78.60;;;;;;5085491;28;20823;-49
2021/04/10 04:41:23;;;;;;;7.83;4.50;;;10.60;78.50;;;;;;5093438;28;20444;-49
2021/04/10 04:43:50;;;;;;;4.20;2.80;;;10.70;79.10;;;;;;5090964;28;20453;-49
2021/04/10 04:46:16;;;;;;;3.07;2.43;;;10.70;78.70;;;;;;5092600;28;20554;-48
2021/04/10 04:48:43;;;;;;;4.20;2.80;;;10.70;78.90;;;;;;5092774;28;20491;-49
2021/04/10 04:51:10;;;;;;;4.77;3.00;;;10.70;79.50;;;;;;5090780;28;20454;-49
2021/04/10 04:53:37;;;;;;;2.90;2.70;;;10.60;80.20;;;;;;5074113;28;20559;-49
2021/04/10 04:56:03;;;;;;;3.83;2.70;;;10.60;79.70;;;;;;5093158;28;20453;-49
2021/04/10 04:58:30;;;;;;;4.70;3.50;;;10.70;81.10;;;;;;5086595;28;20474;-49
2021/04/10 05:00:56;;;;;;;4.97;3.50;;;10.60;81.40;;;;;;5073650;28;20451;-49
2021/04/10 05:03:23;;;;;;;4.33;3.50;;;10.60;81.60;;;;;;5072505;28;20458;-49
2021/04/10 05:05:49;;;;;;;4.23;3.40;;;10.80;80.70;;;;;;5073516;28;20507;-49
2021/04/10 05:08:17;;;;;;;4.63;3.10;;;10.70;80.50;;;;;;5075436;28;20478;-49
2021/04/10 05:10:43;;;;;;;4.03;3.33;;;10.70;82.20;;;;;;5072608;28;20874;-48
2021/04/10 05:13:09;;;;;;;5.73;2.87;;;10.80;82.20;;;;;;5073239;28;20447;-49
2021/04/10 05:15:36;;;;;;;4.67;2.93;;;11.00;79.60;;;;;;5082642;28;20449;-49
2021/04/10 05:18:03;;;;;;;4.80;3.30;;;10.90;81.40;;;;;;5076012;28;20463;-48
2021/04/10 05:20:29;;;;;;;3.00;2.63;;;10.90;80.40;;;;;;5072460;28;20443;-49
2021/04/10 05:22:56;;;;;;;5.10;3.03;;;11.00;79.20;;;;;;5072529;28;20503;-48
2021/04/10 05:25:24;;;;;;;3.93;3.37;;;11.10;80.20;;;;;;5086426;28;20871;-49
2021/04/10 05:27:51;;;;;;;4.10;3.20;;;11.10;79.80;;;;;;5076566;28;20477;-48
2021/04/10 05:30:19;;;;;;;5.93;3.30;;;10.90;82.00;;;;;;5072012;28;20488;-48
2021/04/10 05:32:45;;;;;;;3.50;3.20;;;10.90;82.10;;;;;;5074834;28;20458;-49
2021/04/10 05:35:14;;;;;;;3.63;2.93;;;10.80;81.80;;;;;;5079390;28;20454;-48
2021/04/10 05:37:41;;;;;;;6.27;3.40;;;10.90;81.40;;;;;;5082776;28;20474;-49
2021/04/10 05:40:09;;;;;;;5.20;3.43;;;10.70;81.20;;;;;;5084473;28;21018;-49
2021/04/10 05:42:38;;;;;;;6.67;5.67;;;10.60;81.30;;;;;;5079310;28;20446;-49
2021/04/10 05:45:06;;;;;;;8.60;3.43;;;10.60;81.20;;;;;;5090029;28;20452;-49
2021/04/10 05:47:34;;;;;;;4.53;3.80;;;10.70;80.80;;;;;;5086587;28;20471;-49
2021/04/10 05:50:00;;;;;;;5.10;3.63;;;10.80;81.10;;;;;;5088639;28;20505;-49
2021/04/10 05:52:27;;;;;;;5.50;3.50;;;11.20;80.30;;;;;;5072672;28;20454;-49
2021/04/10 05:54:53;;;;;;;6.40;4.10;;;11.50;80.00;;;;;;5075042;28;20457;-49
2021/04/10 05:57:19;;;;;;;8.00;3.70;;;11.80;79.10;;;;;;5071583;28;20988;-49
2021/04/10 05:59:47;;;;;;;6.30;5.00;;;12.40;79.30;;;;;;5078054;28;20449;-48
2021/04/10 06:02:14;;;;;;;9.73;4.17;;;12.80;78.60;;;;;;5091850;28;20446;-49
2021/04/10 06:04:41;;;;;;;7.53;4.20;;;13.10;78.20;;;;;;5091830;28;20446;-49
2021/04/10 06:07:08;;;;;;;4.60;3.47;;;13.40;77.80;;;;;;5081322;28;20577;-49
2021/04/10 06:09:34;;;;;;;6.20;3.60;;;13.30;77.30;;;;;;5088910;28;20860;-49
2021/04/10 06:12:00;;;;;;;5.20;3.77;;;13.50;76.60;;;;;;5074473;28;20504;-49
2021/04/10 06:14:27;;;;;;;7.03;3.60;;;13.40;76.00;;;;;;5071356;28;20967;-50
2021/04/10 06:16:54;;;;;;;6.77;3.53;;;13.20;76.20;;;;;;5072500;28;20943;-49
2021/04/10 06:19:22;;;;;;;10.63;3.60;;;13.10;76.80;;;;;;5075744;28;20458;-49
2021/04/10 06:21:48;;;;;;;5.67;3.70;;;13.00;77.10;;;;;;5084276;28;20955;-49
2021/04/10 06:24:16;;;;;;;8.93;3.53;;;12.80;77.70;;;;;;5071594;28;20485;-49
2021/04/10 06:26:43;;;;;;;7.33;3.00;;;12.70;78.50;;;;;;5088663;28;20532;-50
2021/04/10 06:29:10;;;;;;;5.83;3.60;;;12.90;79.10;;;;;;5088276;28;20504;-50
2021/04/10 06:31:37;;;;;;;6.40;3.83;;;13.40;78.80;;;;;;5075633;28;20450;-50
2021/04/10 06:34:05;;;;;;;5.93;4.00;;;14.30;79.80;;;;;;5079507;28;20446;-49
2021/04/10 06:36:31;;;;;;;4.17;2.80;;;15.10;78.00;;;;;;5087630;28;20448;-49
2021/04/10 06:38:58;;;;;;;3.03;2.80;;;15.10;74.40;;;;;;5081115;28;20810;-49
2021/04/10 06:41:25;;;;;;;3.13;2.83;;;15.40;74.50;;;;;;5087176;28;20453;-50
2021/04/10 06:43:51;;;;;;;8.17;3.20;;;15.70;74.00;;;;;;5084630;28;20443;-49
2021/04/10 06:46:18;;;;;;;4.77;3.30;;;14.70;76.50;;;;;;5083799;28;20450;-50
2021/04/10 06:48:45;;;;;;;4.40;3.17;;;15.30;78.90;;;;;;5095221;28;20482;-50
2021/04/10 06:51:15;;;;;;;7.53;3.20;;;16.10;74.40;;;;;;5082385;28;20475;-49
2021/04/10 06:53:44;;;;;;;3.60;2.70;;;17.30;71.80;;;;;;5075038;28;20451;-50
2021/04/10 06:56:12;;;;;;;4.23;3.33;;;17.80;70.80;;;;;;5074789;28;20503;-50
2021/04/10 06:58:51;;;;;;;5.87;2.30;;;18.80;68.90;;;;;;5086954;28;20546;-51
2021/04/10 07:01:19;;;;;;;4.00;3.27;;;19.30;68.50;;;;;;5075112;28;21001;-50
2021/04/10 07:03:50;;;;;;;3.27;2.67;;;19.10;66.40;;;;;;5077207;28;20450;-50
2021/04/10 07:06:17;;;;;;;4.60;3.07;;;18.20;68.10;;;;;;5078735;28;20500;-50
2021/04/10 07:08:44;;;;;;;8.30;2.90;;;18.90;67.50;;;;;;5091183;28;20474;-50
2021/04/10 07:11:12;;;;;;;3.30;3.00;;;19.30;65.00;;;;;;5078484;28;20492;-50
2021/04/10 07:13:39;;;;;;;3.60;2.70;;;19.20;63.60;;;;;;5083233;28;20458;-50
2021/04/10 07:16:06;;;;;;;4.43;2.80;;;19.80;62.80;;;;;;5082284;28;20541;-49
2021/04/10 07:18:33;;;;;;;4.07;2.90;;;20.00;62.10;;;;;;5090192;28;20478;-50
2021/04/10 07:21:13;;;;;;;4.47;3.33;;;20.00;62.90;;;;;;5085265;28;20458;-50
2021/04/10 07:23:45;;;;;;;5.10;3.50;;;19.90;63.20;;;;;;5074500;28;20457;-50
2021/04/10 07:26:12;;;;;;;4.20;3.30;;;19.40;63.60;;;;;;5075063;28;20446;-49
2021/04/10 07:28:38;;;;;;;4.07;3.10;;;19.30;64.40;;;;;;5095594;22;20505;-51
2021/04/10 07:31:06;;;;;;;5.67;3.60;;;18.40;66.10;;;;;;5067150;28;20446;-52
2021/04/10 07:33:34;;;;;;;5.63;3.60;;;17.60;70.30;;;;;;5078560;28;20795;-52
2021/04/10 07:36:02;;;;;;;3.10;2.70;;;17.50;69.40;;;;;;5084873;28;20442;-52
2021/04/10 07:38:31;;;;;;;4.70;3.10;;;17.00;68.60;;;;;;5075546;28;20469;-51
2021/04/10 07:40:59;;;;;;;6.67;3.10;;;16.60;68.80;;;;;;5083107;28;20962;-51
2021/04/10 07:43:27;;;;;;;4.03;2.93;;;16.10;68.60;;;;;;5079583;28;20447;-51
2021/04/10 07:46:19;;;;;;;4.03;2.70;;;16.30;68.80;;;;;;5077309;28;20447;-51
2021/04/10 07:49:11;;;;;;;3.67;2.87;;;16.50;67.40;;;;;;5062515;28;20888;-51
2021/04/10 07:51:52;;;;;;;5.30;3.27;;;16.40;67.00;;;;;;5054404;28;20534;-51
2021/04/10 07:54:24;;;;;;;4.33;2.87;;;16.20;68.40;;;;;;5074682;28;20450;-51
2021/04/10 07:57:00;;;;;;;5.23;3.03;;;16.00;69.20;;;;;;5073941;28;20443;-51
2021/04/10 07:59:27;;;;;;;4.27;2.77;;;16.00;69.90;;;;;;5069906;28;20486;-51
2021/04/10 08:01:53;;;;;;;3.50;3.20;;;16.30;69.10;;;;;;5053934;28;20937;-51
2021/04/10 08:04:21;;;;;;;2.93;2.60;;;16.30;68.50;;;;;;5067915;28;20439;-51
2021/04/10 08:06:55;;;;;;;4.47;3.17;;;16.70;69.20;;;;;;5072182;28;20446;-51
2021/04/10 08:09:30;;;;;;;4.30;3.13;;;17.20;66.90;;;;;;5070696;28;20504;-51
2021/04/10 08:11:58;;;;;;;3.40;3.10;;;17.00;67.10;;;;;;5075773;28;20954;-52
2021/04/10 08:14:25;;;;;;;2.83;2.57;;;16.90;66.90;;;;;;5078559;28;20439;-51
2021/04/10 08:16:52;;;;;;;5.20;3.40;;;17.20;67.20;;;;;;5073970;28;20442;-51
2021/04/10 08:19:29;;;;;;;4.47;3.20;;;16.90;67.70;;;;;;5073316;28;20469;-50
2021/04/10 08:21:56;;;;;;;3.87;2.53;;;16.40;68.90;;;;;;5073691;28;20562;-51
2021/04/10 08:24:34;;;;;;;4.00;3.03;;;16.80;68.60;;;;;;5073508;28;20450;-51
2021/04/10 08:27:04;;;;;;;2.80;2.60;;;17.40;68.80;;;;;;5073378;28;21004;-51
2021/04/10 08:29:31;;;;;;;5.10;2.70;;;17.70;67.40;;;;;;5088501;28;20580;-51
2021/04/10 08:31:59;;;;;;;3.73;3.00;;;17.70;65.40;;;;;;5094050;28;20442;-50
2021/04/10 08:34:26;;;;;;;3.73;2.90;;;17.60;66.00;;;;;;5093547;28;20452;-51
2021/04/10 08:36:55;;;;;;;3.00;2.70;;;17.90;65.90;;;;;;5093420;28;20446;-51
2021/04/10 08:39:29;;;;;;;3.03;2.73;;;18.00;65.90;;;;;;5092010;28;20461;-51
2021/04/10 08:42:00;;;;;;;3.67;3.10;;;17.90;66.60;;;;;;5071528;28;20450;-51
2021/04/10 08:44:30;;;;;;;4.17;2.90;;;17.90;66.70;;;;;;5061517;28;20975;-51
2021/04/10 08:46:58;;;;;;;4.50;3.10;;;18.10;67.00;;;;;;5078187;28;20479;-51
2021/04/10 08:49:26;;;;;;;6.57;3.83;;;17.60;70.10;;;;;;5067036;28;20482;-51
2021/04/10 08:52:01;;;;;;;6.23;3.63;;;17.80;70.50;;;;;;5086148;28;20454;-50
2021/04/10 08:54:32;;;;;;;4.67;3.20;;;17.60;68.00;;;;;;5092927;28;20532;-51
2021/04/10 08:56:58;;;;;;;3.57;3.17;;;17.00;69.80;;;;;;5091275;28;20528;-51
2021/04/10 08:59:25;;;;;;;3.27;2.97;;;16.40;73.70;;;;;;5092805;28;20818;-51
2021/04/10 09:02:09;;;;;;;3.33;2.80;;;16.30;72.20;;;;;;5083751;28;20457;-51
2021/04/10 09:04:57;;;;;;;3.33;3.00;;;16.50;72.00;;;;;;5069105;28;20457;-51
2021/04/10 09:08:06;;;;;;;6.33;3.30;;;16.50;75.90;;;;;;5074708;28;20530;-51
2021/04/10 09:10:50;;;;;;;7.30;3.57;;;17.40;70.80;;;;;;5034191;28;20478;-51
2021/04/10 09:13:43;;;;;;;8.03;2.97;;;18.00;71.30;;;;;;5077183;28;20463;-51
2021/04/10 09:16:37;;;;;;;4.13;3.33;;;17.20;73.30;;;;;;5065526;28;20447;-51
2021/04/10 09:19:13;;;;;;;4.07;3.23;;;16.90;74.90;;;;;;5042801;28;20475;-51
2021/04/10 09:21:46;;;;;;;3.27;2.97;;;16.30;75.60;;;;;;5052469;28;20450;-51
2021/04/10 09:24:30;;;;;;;4.50;3.17;;;16.40;76.90;;;;;;5052532;28;20448;-51
2021/04/10 09:27:03;;;;;;;8.13;3.60;;;17.00;77.20;;;;;;5067384;28;20884;-51
2021/04/10 09:29:31;;;;;;;7.97;3.47;;;17.40;76.40;;;;;;5071731;28;20490;-51
2021/04/10 09:32:01;;;;;;;7.30;3.70;;;17.70;73.90;;;;;;5066565;28;20447;-51
2021/04/10 09:34:53;;;;;;;4.65;3.40;;;17.00;78.10;;;;;;5070841;28;20442;-50
2021/04/10 09:38:00;;;;;;;2.57;2.37;;;16.70;78.10;;;;;;5071327;28;20285;-52
2021/04/10 09:40:49;;;;;;;6.03;3.27;;;16.10;80.20;;;;;;5064130;28;20438;-51
2021/04/10 09:43:20;;;;;;;4.83;3.33;;;16.60;80.80;;;;;;5071588;28;20466;-50
2021/04/10 09:45:48;;;;;;;2.93;2.50;;;16.70;80.20;;;;;;5071281;28;20870;-51
2021/04/10 09:48:35;;;;;;;4.10;2.80;;;16.00;84.70;;;;;;5071174;28;20991;-51
2021/04/10 09:51:14;;;;;;;5.57;2.70;;;15.70;85.70;;;;;;5066477;28;20450;-51
2021/04/10 09:53:42;;;;;;;3.60;2.30;;;16.20;83.40;;;;;;5060109;28;20462;-51
2021/04/10 09:56:11;;;;;;;2.83;2.60;;;16.30;81.90;;;;;;5071768;28;20451;-52
2021/04/10 09:58:46;;;;;;;4.03;2.50;;;16.30;83.50;;;;;;5071473;28;20546;-51
2021/04/10 10:01:24;;;;;;;4.37;2.50;;;14.80;85.40;;;;;;5071419;28;20450;-51
2021/04/10 10:03:51;;;;;;;4.07;2.43;;;14.40;89.20;;;;;;5070746;28;20462;-51
2021/04/10 10:06:25;;;;;;;5.40;3.00;;;14.50;88.00;;;;;;5071463;28;20473;-51
2021/04/10 10:08:52;;;;;;;17.80;12.20;;;14.50;88.40;;;;;;5071139;28;20474;-51
2021/04/10 10:11:20;;;;;;;13.30;7.27;;;14.50;88.00;;;;;;5071199;28;20447;-51
2021/04/10 10:13:47;;;;;;;10.83;5.30;;;14.70;90.40;;;;;;5071170;28;20443;-50
2021/04/10 10:16:14;;;;;;;15.80;8.87;;;15.00;88.90;;;;;;5071683;28;20935;-50
2021/04/10 10:18:42;;;;;;;5.57;3.00;;;15.90;87.30;;;;;;5070825;28;20467;-52
2021/04/10 10:21:11;;;;;;;2.90;2.43;;;17.20;83.90;;;;;;5071570;28;20446;-52
2021/04/10 10:23:40;;;;;;;6.07;2.43;;;18.10;81.80;;;;;;5071551;28;20544;-52
2021/04/10 10:26:10;;;;;;;3.10;2.53;;;18.10;81.40;;;;;;5071447;28;20446;-51
2021/04/10 10:28:39;;;;;;;6.37;3.10;;;16.70;86.10;;;;;;5070562;28;20483;-51
2021/04/10 10:31:07;;;;;;;6.40;3.20;;;15.60;88.10;;;;;;5070792;28;20439;-50
2021/04/10 10:33:34;;;;;;;6.07;3.23;;;14.90;90.80;;;;;;5072818;28;20446;-51
2021/04/10 10:36:01;;;;;;;3.63;2.93;;;15.10;87.20;;;;;;5073259;28;20447;-52
2021/04/10 10:38:34;;;;;;;2.80;2.60;;;15.20;86.60;;;;;;5072465;28;20462;-52
2021/04/10 10:41:02;;;;;;;3.80;2.80;;;15.60;86.70;;;;;;5071051;28;20493;-52
2021/04/10 10:43:29;;;;;;;3.10;2.60;;;15.30;87.50;;;;;;5072001;28;20449;-52
2021/04/10 10:45:57;;;;;;;4.30;2.40;;;15.80;84.90;;;;;;5072456;28;20497;-52
2021/04/10 10:48:27;;;;;;;3.07;2.60;;;16.20;83.60;;;;;;5071872;28;20467;-52
2021/04/10 10:50:56;;;;;;;5.80;3.73;;;16.00;84.70;;;;;;5072644;28;20482;-51
2021/04/10 10:53:24;;;;;;;6.30;3.00;;;16.30;83.70;;;;;;5072251;28;20447;-52
2021/04/10 10:56:06;;;;;;;7.00;3.43;;;16.70;82.20;;;;;;5072458;28;20442;-52
2021/04/10 10:58:35;;;;;;;6.03;3.30;;;16.50;83.40;;;;;;5072152;28;20535;-52
2021/04/10 11:01:10;;;;;;;4.37;3.23;;;16.00;87.80;;;;;;5072807;28;21205;-51
2021/04/10 11:03:37;;;;;;;3.30;2.80;;;15.00;88.40;;;;;;5073022;28;20446;-51
2021/04/10 11:06:04;;;;;;;3.70;2.93;;;15.20;86.70;;;;;;5070776;28;20523;-51
2021/04/10 11:08:31;;;;;;;5.83;2.63;;;15.20;87.50;;;;;;5070154;28;20466;-51
2021/04/10 11:10:58;;;;;;;4.00;2.93;;;15.60;88.00;;;;;;5069815;28;20486;-51
2021/04/10 11:13:26;;;;;;;3.83;2.90;;;16.00;88.00;;;;;;5070881;28;20538;-51
2021/04/10 11:15:53;;;;;;;5.30;2.87;;;16.10;86.50;;;;;;5056775;28;20457;-51
2021/04/10 11:18:29;;;;;;;4.60;3.10;;;15.80;88.50;;;;;;5054124;28;20464;-50
2021/04/10 11:21:29;;;;;;;5.00;3.30;;;15.60;87.80;;;;;;5069939;28;20844;-51
2021/04/10 11:24:13;;;;;;;5.57;2.60;;;15.40;87.20;;;;;;5054614;28;20959;-51
2021/04/10 11:26:46;;;;;;;3.47;3.17;;;15.80;86.60;;;;;;5073678;28;20457;-51
2021/04/10 11:29:19;;;;;;;4.90;3.00;;;15.70;88.00;;;;;;5073474;28;20486;-51
2021/04/10 11:32:09;;;;;;;5.37;3.70;;;15.90;86.00;;;;;;5073978;28;20435;-52
2021/04/10 11:34:38;;;;;;;7.23;4.00;;;16.40;83.50;;;;;;5074439;28;20452;-51
2021/04/10 11:37:06;;;;;;;5.30;3.60;;;16.50;83.00;;;;;;5074224;28;20451;-51
2021/04/10 11:39:48;;;;;;;4.43;3.20;;;16.70;83.80;;;;;;5073612;28;20467;-51
2021/04/10 11:42:26;;;;;;;5.70;3.20;;;16.50;83.40;;;;;;5073508;28;20492;-51
2021/04/10 11:44:54;;;;;;;5.83;3.43;;;16.60;83.30;;;;;;5073878;28;20504;-51
2021/04/10 11:47:23;;;;;;;4.97;3.10;;;16.70;83.50;;;;;;5074249;28;20454;-51
2021/04/10 11:49:49;;;;;;;6.53;3.30;;;16.90;82.60;;;;;;5073845;28;20556;-51
2021/04/10 11:52:17;;;;;;;4.00;3.60;;;17.00;82.40;;;;;;5062537;28;20474;-51
2021/04/10 11:54:44;;;;;;;6.07;3.40;;;17.00;83.80;;;;;;5074065;28;20910;-53
2021/04/10 11:57:32;;;;;;;5.20;3.70;;;16.70;83.70;;;;;;5073855;28;20462;-50
2021/04/10 12:00:18;;;;;;;3.80;2.77;;;16.50;86.30;;;;;;5066350;28;20462;-51
2021/04/10 12:02:46;;;;;;;8.00;3.30;;;16.10;88.70;;;;;;5054006;28;20470;-51
2021/04/10 12:05:24;;;;;;;6.63;3.60;;;16.50;86.50;;;;;;5054072;28;20450;-51
2021/04/10 12:08:06;;;;;;;5.87;3.30;;;17.10;82.70;;;;;;5060771;28;20459;-50
2021/04/10 12:10:33;;;;;;;5.33;3.40;;;17.60;82.90;;;;;;5068520;28;20507;-51
2021/04/10 12:13:00;;;;;;;5.20;3.50;;;17.70;81.50;;;;;;5072960;28;20500;-51
2021/04/10 12:15:29;;;;;;;5.97;3.60;;;17.50;82.30;;;;;;5070599;28;20964;-51
2021/04/10 12:17:56;;;;;;;5.83;3.33;;;17.30;82.80;;;;;;5066817;28;20447;-51
2021/04/10 12:20:23;;;;;;;4.23;3.60;;;17.20;84.10;;;;;;5054422;28;20444;-51
2021/04/10 12:22:51;;;;;;;5.13;3.73;;;17.20;82.30;;;;;;5056536;28;20451;-51
2021/04/10 12:25:17;;;;;;;10.57;3.13;;;17.50;83.30;;;;;;5068809;28;20932;-51
2021/04/10 12:27:45;;;;;;;5.10;3.17;;;17.80;82.20;;;;;;5059586;28;20452;-51
2021/04/10 12:30:12;;;;;;;4.97;3.87;;;17.70;82.30;;;;;;5071678;28;21041;-51
2021/04/10 12:32:42;;;;;;;4.47;3.13;;;17.40;83.00;;;;;;5073649;28;20455;-51
2021/04/10 12:35:09;;;;;;;3.70;3.40;;;17.30;82.30;;;;;;5074032;28;21044;-51
2021/04/10 12:37:35;;;;;;;5.80;3.20;;;17.60;81.20;;;;;;5073160;28;20451;-51
2021/04/10 12:40:03;;;;;;;3.60;3.23;;;17.20;82.70;;;;;;5073582;28;20538;-51
2021/04/10 12:42:29;;;;;;;5.37;3.03;;;17.10;83.60;;;;;;5078336;28;20462;-51
2021/04/10 12:44:56;;;;;;;6.60;3.13;;;17.40;81.30;;;;;;5072089;28;20447;-51
2021/04/10 12:47:22;;;;;;;5.60;3.30;;;17.30;83.30;;;;;;5071785;28;20443;-51
2021/04/10 12:49:50;;;;;;;7.33;3.20;;;17.10;82.50;;;;;;5071774;28;20541;-51
2021/04/10 12:52:17;;;;;;;4.50;3.27;;;17.40;85.40;;;;;;5072281;28;20458;-51
2021/04/10 12:54:44;;;;;;;4.50;3.30;;;17.50;86.00;;;;;;5072537;28;20447;-51
2021/04/10 12:57:11;;;;;;;4.33;3.13;;;17.30;84.30;;;;;;5072958;28;20498;-51
2021/04/10 12:59:38;;;;;;;3.77;2.90;;;17.50;82.20;;;;;;5080895;28;20557;-51
2021/04/10 13:02:05;;;;;;;5.07;3.70;;;17.80;86.60;;;;;;5072909;28;20459;-51